createdAt,value
2022-09-22T00:00:09.467Z,86.18
2022-09-22T00:04:19.854Z,86.26
2022-09-22T00:08:21.832Z,85.63
2022-09-22T00:12:23.717Z,86.20
2022-09-22T00:16:27.402Z,86.21
2022-09-22T00:20:35.819Z,86.01
2022-09-22T00:24:38.753Z,85.58
2022-09-22T00:28:41.631Z,85.76
2022-09-22T00:32:50.194Z,86.25
2022-09-22T00:36:54.793Z,85.59
2022-09-22T00:40:57.569Z,85.76
2022-09-22T00:44:59.634Z,86.11
2022-09-22T00:49:06.815Z,85.56
2022-09-22T00:53:11.758Z,85.50
2022-09-22T00:57:24.109Z,85.98
2022-09-22T01:01:26.078Z,86.15
2022-09-22T01:05:30.053Z,86.09
2022-09-22T01:09:34.781Z,86.44
2022-09-22T01:13:52.155Z,86.83
2022-09-22T01:18:06.141Z,86.65
2022-09-22T01:22:14.357Z,86.35
2022-09-22T01:26:29.825Z,86.52
2022-09-22T01:30:31.611Z,85.76
2022-09-22T01:34:42.205Z,86.29
2022-09-22T01:38:58.937Z,86.31
2022-09-22T01:43:12.397Z,86.21
2022-09-22T01:47:17.996Z,86.69
2022-09-22T01:51:24.839Z,86.37
2022-09-22T01:55:31.869Z,86.21
2022-09-22T01:59:43.072Z,86.12
2022-09-22T02:03:58.658Z,86.44
2022-09-22T02:08:08.723Z,86.34
2022-09-22T02:12:21.713Z,86.38
2022-09-22T02:16:30.181Z,86.54
2022-09-22T02:20:33.894Z,86.44
2022-09-22T02:24:44.989Z,86.65
2022-09-22T02:28:48.790Z,86.56
2022-09-22T02:32:52.948Z,86.48
2022-09-22T02:37:14.544Z,86.37
2022-09-22T02:41:32.769Z,86.85
2022-09-22T02:45:37.753Z,86.52
2022-09-22T02:49:42.560Z,86.41
2022-09-22T02:53:45.044Z,86.60
2022-09-22T02:57:55.169Z,86.59
2022-09-22T03:01:56.850Z,86.68
2022-09-22T03:05:59.834Z,86.82
2022-09-22T03:10:02.362Z,86.66
2022-09-22T03:14:04.083Z,86.63
2022-09-22T03:18:06.333Z,86.56
2022-09-22T03:22:11.433Z,87.14
2022-09-22T03:26:21.720Z,87.04
2022-09-22T03:30:24.405Z,87.37
2022-09-22T03:34:32.800Z,87.09
2022-09-22T03:38:34.937Z,86.98
2022-09-22T03:42:37.033Z,86.95
2022-09-22T03:46:38.996Z,86.67
2022-09-22T03:50:41.256Z,87.05
2022-09-22T03:54:43.202Z,87.21
2022-09-22T03:58:45.194Z,86.72
2022-09-22T04:02:49.397Z,86.74
2022-09-22T04:06:51.602Z,86.90
2022-09-22T04:11:00.285Z,86.83
2022-09-22T04:15:02.112Z,86.81
2022-09-22T04:19:08.032Z,86.34
2022-09-22T04:23:11.728Z,86.70
2022-09-22T04:27:20.038Z,86.58
2022-09-22T04:31:30.041Z,86.73
2022-09-22T04:35:32.460Z,86.79
2022-09-22T04:39:40.249Z,86.58
2022-09-22T04:43:50.054Z,86.85
2022-09-22T04:48:02.181Z,86.62
2022-09-22T04:52:04.281Z,86.64
2022-09-22T04:56:06.917Z,86.89
2022-09-22T05:00:09.925Z,86.83
2022-09-22T05:04:11.782Z,87.13
2022-09-22T05:08:13.966Z,87.22
2022-09-22T05:12:15.976Z,86.85
2022-09-22T05:16:18.208Z,86.71
2022-09-22T05:20:21.136Z,87.02
2022-09-22T05:24:22.770Z,86.82
2022-09-22T05:28:24.447Z,87.17
2022-09-22T05:32:26.328Z,87.59
2022-09-22T05:36:28.066Z,87.62
2022-09-22T05:40:31.383Z,87.71
2022-09-22T05:44:32.699Z,87.98
2022-09-22T05:48:34.054Z,88.17
2022-09-22T05:52:35.652Z,88.30
2022-09-22T05:56:36.929Z,88.19
2022-09-22T06:00:45.741Z,88.02
2022-09-22T06:04:49.567Z,88.71
2022-09-22T06:08:51.338Z,89.05
2022-09-22T06:12:57.745Z,88.32
2022-09-22T06:16:59.319Z,89.13
2022-09-22T06:21:00.631Z,88.97
2022-09-22T06:25:01.864Z,89.05
2022-09-22T06:29:03.149Z,87.96
2022-09-22T06:33:04.466Z,86.68
2022-09-22T06:37:09.162Z,86.34
2022-09-22T06:41:10.720Z,86.07
2022-09-22T06:45:12.568Z,85.85
2022-09-22T06:49:13.892Z,84.12
2022-09-22T06:53:15.168Z,82.91
2022-09-22T06:57:17.602Z,81.95
2022-09-22T07:01:26.278Z,80.28
2022-09-22T07:05:33.751Z,79.73
2022-09-22T07:09:35.108Z,77.49
2022-09-22T07:13:39.964Z,76.85
2022-09-22T07:17:41.397Z,75.01
2022-09-22T07:21:50.789Z,73.51
2022-09-22T07:26:05.788Z,72.16
2022-09-22T07:30:15.795Z,70.45
2022-09-22T07:34:18.590Z,69.26
2022-09-22T07:38:27.780Z,67.78
2022-09-22T07:42:29.109Z,66.23
2022-09-22T07:46:30.477Z,64.05
2022-09-22T07:50:31.780Z,62.75
2022-09-22T07:54:36.888Z,61.23
2022-09-22T07:58:39.928Z,60.51
2022-09-22T08:02:41.319Z,59.14
2022-09-22T08:06:46.399Z,58.65
2022-09-22T08:10:55.868Z,57.52
2022-09-22T08:14:57.912Z,56.86
2022-09-22T08:19:06.745Z,55.88
2022-09-22T08:23:08.472Z,54.74
2022-09-22T08:27:09.849Z,54.24
2022-09-22T08:31:12.091Z,52.98
2022-09-22T08:35:13.414Z,52.49
2022-09-22T08:39:21.803Z,51.74
2022-09-22T08:43:23.023Z,50.86
2022-09-22T08:47:50.006Z,50.70
2022-09-22T08:51:56.400Z,50.60
2022-09-22T08:56:05.322Z,49.53
2022-09-22T09:00:14.313Z,49.18
2022-09-22T09:04:36.057Z,48.83
2022-09-22T09:08:43.208Z,48.88
2022-09-22T09:12:54.181Z,48.12
2022-09-22T09:17:09.220Z,46.82
2022-09-22T09:21:14.793Z,46.13
2022-09-22T09:25:24.132Z,46.23
2022-09-22T09:29:30.511Z,45.43
2022-09-22T09:33:58.855Z,45.37
2022-09-22T09:38:01.197Z,44.58
2022-09-22T09:42:06.501Z,43.98
2022-09-22T09:46:15.097Z,43.27
2022-09-22T09:50:16.765Z,43.27
2022-09-22T09:54:18.653Z,42.79
2022-09-22T09:58:38.843Z,42.62
2022-09-22T10:02:50.540Z,41.35
2022-09-22T10:06:52.010Z,39.97
2022-09-22T10:11:01.882Z,40.29
2022-09-22T10:15:03.365Z,40.28
2022-09-22T10:19:17.996Z,40.59
2022-09-22T10:23:21.484Z,40.74
2022-09-22T10:27:25.560Z,40.07
2022-09-22T10:31:35.064Z,39.69
2022-09-22T10:35:36.745Z,39.78
2022-09-22T10:39:40.172Z,39.45
2022-09-22T10:44:20.943Z,39.55
2022-09-22T10:48:32.555Z,39.28
2022-09-22T10:52:41.379Z,38.26
2022-09-22T10:56:44.051Z,38.86
2022-09-22T11:00:53.881Z,38.75
2022-09-22T11:05:05.160Z,39.12
2022-09-22T11:09:25.488Z,38.62
2022-09-22T11:13:34.949Z,37.99
2022-09-22T11:17:55.347Z,38.34
2022-09-22T11:22:15.484Z,37.82
2022-09-22T11:26:35.880Z,37.88
2022-09-22T11:30:43.143Z,37.39
2022-09-22T11:34:56.178Z,37.33
2022-09-22T11:38:59.489Z,36.56
2022-09-22T11:43:19.688Z,35.89
2022-09-22T11:47:27.064Z,36.07
2022-09-22T11:51:41.512Z,35.54
2022-09-22T11:55:56.870Z,36.07
2022-09-22T12:00:02.216Z,36.16
2022-09-22T12:04:27.557Z,35.80
2022-09-22T12:08:30.269Z,35.03
2022-09-22T12:12:32.187Z,35.70
2022-09-22T12:16:42.352Z,35.26
2022-09-22T12:20:49.992Z,35.16
2022-09-22T12:24:51.461Z,35.08
2022-09-22T12:28:53.145Z,35.31
2022-09-22T12:32:54.376Z,34.94
2022-09-22T12:36:59.325Z,35.05
2022-09-22T12:41:10.948Z,35.07
2022-09-22T12:45:15.506Z,34.92
2022-09-22T12:49:19.743Z,34.86
2022-09-22T12:53:28.106Z,34.60
2022-09-22T12:57:29.996Z,34.14
2022-09-22T13:01:32.751Z,34.30
2022-09-22T13:05:46.375Z,34.95
2022-09-22T13:09:48.204Z,34.32
2022-09-22T13:13:50.551Z,34.00
2022-09-22T13:17:51.917Z,34.09
2022-09-22T13:21:53.223Z,34.45
2022-09-22T13:25:54.738Z,34.14
2022-09-22T13:29:58.873Z,34.26
2022-09-22T13:34:16.333Z,33.90
2022-09-22T13:38:17.660Z,33.33
2022-09-22T13:42:31.326Z,34.03
2022-09-22T13:46:38.123Z,33.72
2022-09-22T13:51:06.092Z,32.89
2022-09-22T13:55:15.946Z,33.38
2022-09-22T13:59:24.697Z,34.00
2022-09-22T14:03:26.103Z,33.73
2022-09-22T14:07:49.516Z,34.82
2022-09-22T14:11:51.560Z,33.74
2022-09-22T14:15:53.660Z,33.79
2022-09-22T14:20:00.237Z,33.65
2022-09-22T14:24:01.770Z,33.00
2022-09-22T14:28:03.033Z,33.48
2022-09-22T14:32:12.942Z,33.56
2022-09-22T14:36:17.554Z,33.58
2022-09-22T14:40:23.676Z,32.63
2022-09-22T14:44:43.939Z,33.72
2022-09-22T14:48:45.582Z,33.74
2022-09-22T14:52:55.364Z,34.26
2022-09-22T14:56:59.056Z,33.32
2022-09-22T15:01:21.042Z,33.45
2022-09-22T15:05:32.208Z,33.25
2022-09-22T15:09:37.120Z,33.36
2022-09-22T15:13:46.798Z,33.63
2022-09-22T15:18:19.531Z,33.50
2022-09-22T15:22:20.892Z,33.24
2022-09-22T15:26:25.402Z,33.45
2022-09-22T15:30:31.875Z,33.99
2022-09-22T15:34:33.249Z,33.34
2022-09-22T15:38:37.424Z,33.40
2022-09-22T15:42:48.266Z,33.20
2022-09-22T15:47:01.174Z,33.03
2022-09-22T15:51:06.377Z,32.75
2022-09-22T15:55:11.860Z,32.51
2022-09-22T15:59:23.241Z,31.88
2022-09-22T16:03:24.578Z,31.96
2022-09-22T16:07:26.149Z,31.59
2022-09-22T16:11:30.459Z,31.31
2022-09-22T16:15:32.940Z,32.10
2022-09-22T16:19:34.769Z,31.64
2022-09-22T16:23:36.021Z,28.62
2022-09-22T16:27:38.208Z,27.89
2022-09-22T16:31:39.559Z,30.88
2022-09-22T16:35:48.030Z,33.41
2022-09-22T16:39:56.020Z,35.94
2022-09-22T16:44:05.054Z,37.89
2022-09-22T16:48:07.159Z,38.27
2022-09-22T16:52:17.066Z,39.64
2022-09-22T16:56:28.513Z,40.27
2022-09-22T17:00:39.103Z,41.57
2022-09-22T17:04:40.497Z,42.32
2022-09-22T17:08:43.800Z,43.70
2022-09-22T17:12:45.336Z,48.06
2022-09-22T17:16:49.115Z,50.32
2022-09-22T17:20:50.532Z,50.89
2022-09-22T17:24:54.777Z,52.42
2022-09-22T17:28:56.151Z,54.02
2022-09-22T17:32:57.473Z,55.19
2022-09-22T17:36:59.334Z,56.50
2022-09-22T17:41:10.104Z,57.39
2022-09-22T17:45:11.452Z,57.87
2022-09-22T17:49:35.548Z,58.06
2022-09-22T17:53:55.857Z,58.65
2022-09-22T17:57:57.199Z,59.28
2022-09-22T18:01:59.007Z,60.22
2022-09-22T18:06:00.336Z,60.37
2022-09-22T18:10:09.183Z,62.01
2022-09-22T18:14:10.924Z,62.12
2022-09-22T18:18:19.084Z,62.24
2022-09-22T18:22:23.854Z,61.58
2022-09-22T18:26:36.424Z,61.62
2022-09-22T18:30:40.123Z,62.06
2022-09-22T18:34:41.438Z,63.07
2022-09-22T18:38:43.856Z,64.39
2022-09-22T18:42:45.284Z,65.45
2022-09-22T18:46:55.101Z,65.55
2022-09-22T18:50:56.380Z,66.56
2022-09-22T18:54:58.852Z,66.69
2022-09-22T18:59:00.152Z,67.34
2022-09-22T19:03:01.588Z,68.01
2022-09-22T19:07:28.136Z,68.00
2022-09-22T19:11:36.449Z,68.22
2022-09-22T19:15:40.438Z,68.67
2022-09-22T19:19:46.102Z,69.31
2022-09-22T19:23:47.541Z,69.76
2022-09-22T19:27:49.800Z,70.13
2022-09-22T19:31:51.265Z,71.52
2022-09-22T19:35:52.550Z,71.96
2022-09-22T19:40:00.214Z,72.86
2022-09-22T19:44:02.084Z,73.34
2022-09-22T19:48:03.470Z,73.17
2022-09-22T19:52:04.769Z,73.84
2022-09-22T19:56:06.424Z,73.94
2022-09-22T20:00:17.593Z,74.59
2022-09-22T20:04:19.785Z,74.84
2022-09-22T20:08:29.153Z,75.32
2022-09-22T20:12:30.475Z,76.21
2022-09-22T20:16:32.680Z,76.20
2022-09-22T20:20:34.045Z,76.03
2022-09-22T20:24:36.004Z,76.34
2022-09-22T20:28:39.536Z,77.00
2022-09-22T20:32:47.245Z,77.15
2022-09-22T20:36:55.180Z,77.04
2022-09-22T20:41:00.422Z,77.69
2022-09-22T20:45:01.662Z,78.06
2022-09-22T20:49:11.314Z,78.17
2022-09-22T20:53:12.771Z,78.39
2022-09-22T20:57:14.464Z,78.62
2022-09-22T21:01:16.769Z,79.34
2022-09-22T21:05:25.157Z,79.53
2022-09-22T21:09:44.968Z,79.44
2022-09-22T21:13:46.324Z,80.05
2022-09-22T21:17:48.704Z,80.45
2022-09-22T21:21:49.970Z,80.64
2022-09-22T21:25:58.440Z,80.63
2022-09-22T21:29:59.673Z,81.15
2022-09-22T21:34:01.019Z,81.20
2022-09-22T21:38:02.603Z,81.22
2022-09-22T21:42:04.116Z,81.48
2022-09-22T21:46:07.192Z,81.05
2022-09-22T21:50:08.801Z,81.46
2022-09-22T21:54:14.700Z,81.46
2022-09-22T21:58:22.223Z,81.78
2022-09-22T22:02:23.490Z,81.80
2022-09-22T22:06:26.794Z,82.22
2022-09-22T22:10:28.176Z,82.29
2022-09-22T22:14:32.016Z,82.45
2022-09-22T22:18:33.469Z,82.53
2022-09-22T22:22:42.180Z,82.45
2022-09-22T22:26:54.618Z,82.45
2022-09-22T22:30:56.575Z,82.69
2022-09-22T22:35:04.238Z,82.63
2022-09-22T22:39:12.312Z,82.80
2022-09-22T22:43:17.229Z,83.16
2022-09-22T22:47:18.701Z,83.05
2022-09-22T22:51:28.392Z,82.85
2022-09-22T22:55:29.894Z,83.02
2022-09-22T22:59:31.306Z,82.82
2022-09-22T23:03:39.304Z,83.32
2022-09-22T23:07:40.645Z,83.09
2022-09-22T23:11:49.457Z,83.55
2022-09-22T23:15:51.989Z,83.83
2022-09-22T23:19:53.981Z,83.79
2022-09-22T23:23:55.758Z,84.24
2022-09-22T23:27:57.116Z,84.19
2022-09-22T23:31:58.360Z,83.85
2022-09-22T23:36:00.130Z,83.80
2022-09-22T23:40:02.058Z,83.70
2022-09-22T23:44:04.428Z,84.04
2022-09-22T23:48:05.978Z,83.65
2022-09-22T23:52:07.425Z,83.92
2022-09-22T23:56:08.689Z,84.00
